sensor_id;sensor_type;location;lat;lon;timestamp;temperature;humidity
6863;DHT22;3470;48.738;9.616;2023-01-10T13:21:31;6.80;99.90
6863;DHT22;3470;48.738;9.616;2023-01-10T13:24:03;7.10;99.90
6863;DHT22;3470;48.738;9.616;2023-01-10T13:29:19;8.00;99.90
6863;DHT22;3470;48.738;9.616;2023-01-10T13:31:45;8.80;99.90
6863;DHT22;3470;48.738;9.616;2023-01-10T13:34:12;9.10;99.90
6863;DHT22;3470;48.738;9.616;2023-01-10T13:36:39;9.10;99.90
6863;DHT22;3470;48.738;9.616;2023-01-10T13:39:29;9.10;99.90
6863;DHT22;3470;48.738;9.616;2023-01-10T13:52:51;6.40;99.90
6863;DHT22;3470;48.738;9.616;2023-01-10T13:57:50;6.70;99.90
6863;DHT22;3470;48.738;9.616;2023-01-10T14:00:49;6.50;99.90
6863;DHT22;3470;48.738;9.616;2023-01-10T14:03:52;6.40;99.90
6863;DHT22;3470;48.738;9.616;2023-01-10T14:06:32;6.30;99.90
6863;DHT22;3470;48.738;9.616;2023-01-10T14:11:53;6.10;99.90
6863;DHT22;3470;48.738;9.616;2023-01-10T14:14:26;6.00;99.90
6863;DHT22;3470;48.738;9.616;2023-01-10T14:17:09;6.10;99.90
6863;DHT22;3470;48.738;9.616;2023-01-10T14:19:35;6.10;99.90
6863;DHT22;3470;48.738;9.616;2023-01-10T14:22:02;6.10;99.90
6863;DHT22;3470;48.738;9.616;2023-01-10T14:24:39;6.10;99.90
6863;DHT22;3470;48.738;9.616;2023-01-10T14:27:11;6.10;99.90
6863;DHT22;3470;48.738;9.616;2023-01-10T14:29:38;6.20;99.90
6863;DHT22;3470;48.738;9.616;2023-01-10T14:32:22;6.30;99.90
6863;DHT22;3470;48.738;9.616;2023-01-10T14:34:52;6.50;99.90
6863;DHT22;3470;48.738;9.616;2023-01-10T14:37:39;6.80;99.90
6863;DHT22;3470;48.738;9.616;2023-01-10T14:42:40;7.60;99.90
6863;DHT22;3470;48.738;9.616;2023-01-10T14:45:27;8.10;99.90
6863;DHT22;3470;48.738;9.616;2023-01-10T14:47:54;8.20;99.90
6863;DHT22;3470;48.738;9.616;2023-01-10T14:50:28;8.30;99.90
6863;DHT22;3470;48.738;9.616;2023-01-10T14:52:55;8.30;99.90
6863;DHT22;3470;48.738;9.616;2023-01-10T14:55:21;7.90;99.90
6863;DHT22;3470;48.738;9.616;2023-01-10T14:57:58;7.50;99.90
6863;DHT22;3470;48.738;9.616;2023-01-10T15:00:32;7.00;99.90
6863;DHT22;3470;48.738;9.616;2023-01-10T15:02:59;6.60;99.90
6863;DHT22;3470;48.738;9.616;2023-01-10T15:05:30;6.30;99.90
6863;DHT22;3470;48.738;9.616;2023-01-10T15:08:15;6.10;99.90
6863;DHT22;3470;48.738;9.616;2023-01-10T15:10:43;5.90;99.90
6863;DHT22;3470;48.738;9.616;2023-01-10T15:13:14;5.80;99.90
6863;DHT22;3470;48.738;9.616;2023-01-10T15:15:40;5.60;99.90
6863;DHT22;3470;48.738;9.616;2023-01-10T15:18:37;5.50;99.90
6863;DHT22;3470;48.738;9.616;2023-01-10T15:21:03;5.40;99.90
6863;DHT22;3470;48.738;9.616;2023-01-10T15:23:34;5.30;99.90
6863;DHT22;3470;48.738;9.616;2023-01-10T15:26:03;5.20;99.90
6863;DHT22;3470;48.738;9.616;2023-01-10T15:28:30;5.20;99.90
6863;DHT22;3470;48.738;9.616;2023-01-10T15:30:56;5.10;99.90
6863;DHT22;3470;48.738;9.616;2023-01-10T15:33:30;5.10;99.90
6863;DHT22;3470;48.738;9.616;2023-01-10T15:36:24;5.00;99.90
6863;DHT22;3470;48.738;9.616;2023-01-10T15:38:50;4.90;99.90
6863;DHT22;3470;48.738;9.616;2023-01-10T15:41:21;4.90;99.90
6863;DHT22;3470;48.738;9.616;2023-01-10T15:43:48;4.80;99.90
6863;DHT22;3470;48.738;9.616;2023-01-10T15:46:24;4.80;99.90
6863;DHT22;3470;48.738;9.616;2023-01-10T15:49:00;4.80;99.90
6863;DHT22;3470;48.738;9.616;2023-01-10T15:51:28;4.80;99.90
6863;DHT22;3470;48.738;9.616;2023-01-10T15:56:30;4.70;99.90
6863;DHT22;3470;48.738;9.616;2023-01-10T15:58:58;4.70;99.90
6863;DHT22;3470;48.738;9.616;2023-01-10T16:01:24;4.60;99.90
6863;DHT22;3470;48.738;9.616;2023-01-10T16:03:54;4.60;99.90
6863;DHT22;3470;48.738;9.616;2023-01-10T16:06:26;4.50;99.90
6863;DHT22;3470;48.738;9.616;2023-01-10T16:08:54;4.50;99.90
6863;DHT22;3470;48.738;9.616;2023-01-10T16:11:33;4.50;99.90
6863;DHT22;3470;48.738;9.616;2023-01-10T16:14:19;4.50;99.90
6863;DHT22;3470;48.738;9.616;2023-01-10T16:16:45;4.50;99.90
6863;DHT22;3470;48.738;9.616;2023-01-10T16:19:10;4.40;99.90
6863;DHT22;3470;48.738;9.616;2023-01-10T16:21:40;4.40;99.90
6863;DHT22;3470;48.738;9.616;2023-01-10T16:24:06;4.30;99.90
6863;DHT22;3470;48.738;9.616;2023-01-10T16:26:38;4.20;99.90
6863;DHT22;3470;48.738;9.616;2023-01-10T16:29:04;4.20;99.90
6863;DHT22;3470;48.738;9.616;2023-01-10T16:31:29;4.20;99.90
6863;DHT22;3470;48.738;9.616;2023-01-10T16:33:55;4.10;99.90
6863;DHT22;3470;48.738;9.616;2023-01-10T16:36:20;4.10;99.90
6863;DHT22;3470;48.738;9.616;2023-01-10T16:38:46;4.10;99.90
6863;DHT22;3470;48.738;9.616;2023-01-10T16:41:13;4.00;99.90
6863;DHT22;3470;48.738;9.616;2023-01-10T16:43:57;4.00;99.90
6863;DHT22;3470;48.738;9.616;2023-01-10T16:46:23;4.00;99.90
6863;DHT22;3470;48.738;9.616;2023-01-10T16:48:49;4.00;99.90
6863;DHT22;3470;48.738;9.616;2023-01-10T16:51:25;4.00;99.90
6863;DHT22;3470;48.738;9.616;2023-01-10T16:53:52;4.00;99.90
6863;DHT22;3470;48.738;9.616;2023-01-10T16:56:20;4.00;99.90
6863;DHT22;3470;48.738;9.616;2023-01-10T16:58:47;3.90;99.90
6863;DHT22;3470;48.738;9.616;2023-01-10T17:01:20;3.90;99.90
6863;DHT22;3470;48.738;9.616;2023-01-10T17:03:48;3.90;99.90
6863;DHT22;3470;48.738;9.616;2023-01-10T17:06:15;3.80;99.90
6863;DHT22;3470;48.738;9.616;2023-01-10T17:08:41;3.80;99.90
6863;DHT22;3470;48.738;9.616;2023-01-10T17:11:19;3.70;99.90
6863;DHT22;3470;48.738;9.616;2023-01-10T17:13:46;3.70;99.90
6863;DHT22;3470;48.738;9.616;2023-01-10T17:16:12;3.70;99.90
6863;DHT22;3470;48.738;9.616;2023-01-10T17:18:40;3.70;99.90
6863;DHT22;3470;48.738;9.616;2023-01-10T17:21:08;3.60;99.90
6863;DHT22;3470;48.738;9.616;2023-01-10T17:23:35;3.60;99.90
6863;DHT22;3470;48.738;9.616;2023-01-10T17:26:04;3.40;99.90
6863;DHT22;3470;48.738;9.616;2023-01-10T17:28:30;3.40;99.90
6863;DHT22;3470;48.738;9.616;2023-01-10T17:30:57;3.40;99.90
6863;DHT22;3470;48.738;9.616;2023-01-10T17:33:24;3.30;99.90
6863;DHT22;3470;48.738;9.616;2023-01-10T17:35:53;3.20;99.90
6863;DHT22;3470;48.738;9.616;2023-01-10T17:38:20;3.30;99.90
6863;DHT22;3470;48.738;9.616;2023-01-10T17:40:46;3.30;99.90
6863;DHT22;3470;48.738;9.616;2023-01-10T17:43:13;3.30;99.90
6863;DHT22;3470;48.738;9.616;2023-01-10T17:45:44;3.30;99.90
6863;DHT22;3470;48.738;9.616;2023-01-10T17:48:11;3.30;99.90
6863;DHT22;3470;48.738;9.616;2023-01-10T17:50:39;3.30;99.90
6863;DHT22;3470;48.738;9.616;2023-01-10T17:53:05;3.30;99.90
6863;DHT22;3470;48.738;9.616;2023-01-10T17:55:31;3.20;99.90
6863;DHT22;3470;48.738;9.616;2023-01-10T17:57:56;3.20;99.90
6863;DHT22;3470;48.738;9.616;2023-01-10T18:00:22;3.20;99.90
6863;DHT22;3470;48.738;9.616;2023-01-10T18:02:48;3.20;99.90
6863;DHT22;3470;48.738;9.616;2023-01-10T18:05:14;3.20;99.90
6863;DHT22;3470;48.738;9.616;2023-01-10T18:07:39;3.10;99.90
6863;DHT22;3470;48.738;9.616;2023-01-10T18:10:05;3.10;99.90
6863;DHT22;3470;48.738;9.616;2023-01-10T18:12:34;3.00;99.90
6863;DHT22;3470;48.738;9.616;2023-01-10T18:14:59;3.00;99.90
6863;DHT22;3470;48.738;9.616;2023-01-10T18:17:25;2.90;99.90
6863;DHT22;3470;48.738;9.616;2023-01-10T18:19:51;2.90;99.90
6863;DHT22;3470;48.738;9.616;2023-01-10T18:22:16;2.90;99.90
6863;DHT22;3470;48.738;9.616;2023-01-10T18:25:00;2.90;99.90
6863;DHT22;3470;48.738;9.616;2023-01-10T18:27:26;2.90;99.90
6863;DHT22;3470;48.738;9.616;2023-01-10T18:29:52;2.90;99.90
6863;DHT22;3470;48.738;9.616;2023-01-10T18:32:20;2.90;99.90
6863;DHT22;3470;48.738;9.616;2023-01-10T18:34:46;2.90;99.90
6863;DHT22;3470;48.738;9.616;2023-01-10T18:37:13;3.10;99.90
6863;DHT22;3470;48.738;9.616;2023-01-10T18:39:39;3.20;99.90
6863;DHT22;3470;48.738;9.616;2023-01-10T18:42:05;3.20;99.90
6863;DHT22;3470;48.738;9.616;2023-01-10T18:44:31;3.30;99.90
6863;DHT22;3470;48.738;9.616;2023-01-10T18:46:56;3.40;99.90
6863;DHT22;3470;48.738;9.616;2023-01-10T18:49:22;3.40;99.90
6863;DHT22;3470;48.738;9.616;2023-01-10T18:51:48;3.40;99.90
6863;DHT22;3470;48.738;9.616;2023-01-10T18:54:13;3.50;99.90
6863;DHT22;3470;48.738;9.616;2023-01-10T18:56:39;3.60;99.90
6863;DHT22;3470;48.738;9.616;2023-01-10T18:59:04;3.60;99.90
6863;DHT22;3470;48.738;9.616;2023-01-10T19:01:30;3.60;99.90
6863;DHT22;3470;48.738;9.616;2023-01-10T19:03:57;3.60;99.90
6863;DHT22;3470;48.738;9.616;2023-01-10T19:06:23;3.70;99.90
6863;DHT22;3470;48.738;9.616;2023-01-10T19:08:49;3.60;99.90
6863;DHT22;3470;48.738;9.616;2023-01-10T19:11:17;3.70;99.90
6863;DHT22;3470;48.738;9.616;2023-01-10T19:13:47;3.60;99.90
6863;DHT22;3470;48.738;9.616;2023-01-10T19:16:18;3.70;99.90
6863;DHT22;3470;48.738;9.616;2023-01-10T19:18:49;3.60;99.90
6863;DHT22;3470;48.738;9.616;2023-01-10T19:21:15;3.60;99.90
6863;DHT22;3470;48.738;9.616;2023-01-10T19:23:42;3.60;99.90
6863;DHT22;3470;48.738;9.616;2023-01-10T19:26:07;3.70;99.90
6863;DHT22;3470;48.738;9.616;2023-01-10T19:28:33;3.70;99.90
6863;DHT22;3470;48.738;9.616;2023-01-10T19:30:59;3.80;99.90
6863;DHT22;3470;48.738;9.616;2023-01-10T19:33:24;3.80;99.90
6863;DHT22;3470;48.738;9.616;2023-01-10T19:35:50;3.90;99.90
6863;DHT22;3470;48.738;9.616;2023-01-10T19:38:16;3.90;99.90
6863;DHT22;3470;48.738;9.616;2023-01-10T19:40:41;3.90;99.90
6863;DHT22;3470;48.738;9.616;2023-01-10T19:43:07;3.90;99.90
6863;DHT22;3470;48.738;9.616;2023-01-10T19:45:32;3.90;99.90
6863;DHT22;3470;48.738;9.616;2023-01-10T19:47:59;3.90;99.90
6863;DHT22;3470;48.738;9.616;2023-01-10T19:50:25;3.90;99.90
6863;DHT22;3470;48.738;9.616;2023-01-10T19:52:51;3.90;99.90
6863;DHT22;3470;48.738;9.616;2023-01-10T19:55:16;4.00;99.90
6863;DHT22;3470;48.738;9.616;2023-01-10T19:57:42;4.00;99.90
6863;DHT22;3470;48.738;9.616;2023-01-10T20:00:08;4.00;99.90
6863;DHT22;3470;48.738;9.616;2023-01-10T20:02:34;4.10;99.90
6863;DHT22;3470;48.738;9.616;2023-01-10T20:05:00;4.10;99.90
6863;DHT22;3470;48.738;9.616;2023-01-10T20:07:27;4.20;99.90
6863;DHT22;3470;48.738;9.616;2023-01-10T20:09:56;4.20;99.90
6863;DHT22;3470;48.738;9.616;2023-01-10T20:12:22;4.20;99.90
6863;DHT22;3470;48.738;9.616;2023-01-10T20:14:48;4.30;99.90
6863;DHT22;3470;48.738;9.616;2023-01-10T20:17:18;4.30;99.90
6863;DHT22;3470;48.738;9.616;2023-01-10T20:19:43;4.30;99.90
6863;DHT22;3470;48.738;9.616;2023-01-10T20:22:09;4.30;99.90
6863;DHT22;3470;48.738;9.616;2023-01-10T20:24:35;4.40;99.90
6863;DHT22;3470;48.738;9.616;2023-01-10T20:27:01;4.40;99.90
6863;DHT22;3470;48.738;9.616;2023-01-10T20:29:34;4.40;99.90
6863;DHT22;3470;48.738;9.616;2023-01-10T20:32:01;4.40;99.90
6863;DHT22;3470;48.738;9.616;2023-01-10T20:34:27;4.50;99.90
6863;DHT22;3470;48.738;9.616;2023-01-10T20:36:52;4.50;99.90
6863;DHT22;3470;48.738;9.616;2023-01-10T20:39:20;4.50;99.90
6863;DHT22;3470;48.738;9.616;2023-01-10T20:41:46;4.50;99.90
6863;DHT22;3470;48.738;9.616;2023-01-10T20:44:11;4.50;99.90
6863;DHT22;3470;48.738;9.616;2023-01-10T20:46:37;4.60;99.90
6863;DHT22;3470;48.738;9.616;2023-01-10T20:49:04;4.60;99.90
6863;DHT22;3470;48.738;9.616;2023-01-10T20:51:32;4.70;99.90
6863;DHT22;3470;48.738;9.616;2023-01-10T20:53:58;4.70;99.90
6863;DHT22;3470;48.738;9.616;2023-01-10T20:56:26;4.80;99.90
6863;DHT22;3470;48.738;9.616;2023-01-10T20:58:52;4.80;99.90
6863;DHT22;3470;48.738;9.616;2023-01-10T21:01:19;4.80;99.90
6863;DHT22;3470;48.738;9.616;2023-01-10T21:03:46;4.80;99.90
6863;DHT22;3470;48.738;9.616;2023-01-10T21:06:13;4.80;99.90
6863;DHT22;3470;48.738;9.616;2023-01-10T21:08:39;4.80;99.90
6863;DHT22;3470;48.738;9.616;2023-01-10T21:11:06;4.90;99.90
6863;DHT22;3470;48.738;9.616;2023-01-10T21:13:32;4.90;99.90
6863;DHT22;3470;48.738;9.616;2023-01-10T21:15:59;4.90;99.90
6863;DHT22;3470;48.738;9.616;2023-01-10T21:18:34;4.90;99.90
